UAE503 VABB-OMDB
Flight info
| Callsign | UAE503 |
|---|---|
| Flight time | 2h 41m |
| Altitude | 40000 |
| Route | RAXET2A SAKUN V1 BIMOT DCT DOGET N571 VUSET A454 PASOV B540 KUPMA/N0417F240 B540 MIVEK P574 IMPED |
| Aircraft | A359/H-SDE2E3GHIJ3J4J5LM1ORWXY/LB1D1 |
Departure
| Time | 2026-05-04 13:32 |
|---|---|
| Airport | Chhatrapati Shivaji Maharaj International Airport (VABB) |
Arrival
| Time | 2026-05-04 16:14 |
|---|---|
| Airport | Dubai International Airport (OMDB) |
| Time | Latitude | Longitude | Altitude | Speed | Heading |
|---|---|---|---|---|---|
| 2026-05-04 12:10 | 19.09474 | 72.87070 | 56 ft | 0 kts | 142° |
| 2026-05-04 13:06 | 19.09482 | 72.87064 | 35 ft | 2 kts | 144° |
| 2026-05-04 13:07 | 19.09496 | 72.87054 | 29 ft | 2 kts | 149° |
| 2026-05-04 13:07 | 19.09510 | 72.87046 | 52 ft | 2 kts | 155° |
| 2026-05-04 13:07 | 19.09526 | 72.87040 | 48 ft | 2 kts | 167° |
| 2026-05-04 13:07 | 19.09542 | 72.87038 | 48 ft | 2 kts | 187° |
| 2026-05-04 13:08 | 19.09558 | 72.87043 | 48 ft | 2 kts | 212° |
| 2026-05-04 13:08 | 19.09571 | 72.87053 | 55 ft | 2 kts | 224° |
| 2026-05-04 13:08 | 19.09574 | 72.87057 | 48 ft | 0 kts | 225° |
| 2026-05-04 13:16 | 19.09566 | 72.87048 | 56 ft | 3 kts | 225° |
| 2026-05-04 13:16 | 19.09544 | 72.87025 | 50 ft | 6 kts | 225° |
| 2026-05-04 13:16 | 19.09511 | 72.86987 | 56 ft | 8 kts | 227° |
| 2026-05-04 13:17 | 19.09466 | 72.86935 | 50 ft | 11 kts | 229° |
| 2026-05-04 13:17 | 19.09414 | 72.86876 | 49 ft | 10 kts | 214° |
| 2026-05-04 13:17 | 19.09365 | 72.86885 | 52 ft | 7 kts | 144° |
| 2026-05-04 13:17 | 19.09320 | 72.86927 | 54 ft | 10 kts | 135° |
| 2026-05-04 13:18 | 19.09266 | 72.86984 | 51 ft | 12 kts | 135° |
| 2026-05-04 13:18 | 19.09233 | 72.87055 | 51 ft | 9 kts | 84° |
| 2026-05-04 13:18 | 19.09235 | 72.87128 | 56 ft | 11 kts | 89° |
| 2026-05-04 13:18 | 19.09237 | 72.87222 | 51 ft | 14 kts | 89° |
| 2026-05-04 13:19 | 19.09194 | 72.87265 | 52 ft | 8 kts | 176° |
| 2026-05-04 13:19 | 19.09144 | 72.87264 | 53 ft | 10 kts | 181° |
| 2026-05-04 13:19 | 19.09103 | 72.87263 | 55 ft | 11 kts | 181° |
| 2026-05-04 13:19 | 19.09053 | 72.87303 | 51 ft | 10 kts | 105° |
| 2026-05-04 13:20 | 19.09051 | 72.87381 | 51 ft | 12 kts | 89° |
| 2026-05-04 13:20 | 19.09052 | 72.87479 | 50 ft | 15 kts | 89° |
| 2026-05-04 13:20 | 19.09054 | 72.87598 | 50 ft | 18 kts | 87° |
| 2026-05-04 13:20 | 19.09057 | 72.87735 | 49 ft | 17 kts | 89° |
| 2026-05-04 13:21 | 19.09059 | 72.87864 | 53 ft | 16 kts | 89° |
| 2026-05-04 13:21 | 19.09060 | 72.87942 | 55 ft | 11 kts | 89° |
| 2026-05-04 13:21 | 19.09061 | 72.88024 | 55 ft | 8 kts | 91° |
| 2026-05-04 13:21 | 19.09029 | 72.88053 | 51 ft | 7 kts | 163° |
| 2026-05-04 13:22 | 19.09016 | 72.88053 | 50 ft | 0 kts | 181° |
| 2026-05-04 13:30 | 19.08991 | 72.88053 | 47 ft | 6 kts | 181° |
| 2026-05-04 13:30 | 19.08932 | 72.88051 | 53 ft | 10 kts | 186° |
| 2026-05-04 13:31 | 19.08889 | 72.88010 | 49 ft | 7 kts | 260° |
| 2026-05-04 13:31 | 19.08887 | 72.87988 | 49 ft | 0 kts | 269° |
| 2026-05-04 13:32 | 19.08886 | 72.87907 | 51 ft | 40 kts | 269° |
| 2026-05-04 13:32 | 19.08876 | 72.87338 | 53 ft | 112 kts | 267° |
| 2026-05-04 13:32 | 19.08852 | 72.86304 | 174 ft | 160 kts | 265° |
| 2026-05-04 13:32 | 19.08871 | 72.85141 | 952 ft | 157 kts | 270° |
| 2026-05-04 13:33 | 19.08877 | 72.83938 | 1484 ft | 171 kts | 267° |
| 2026-05-04 13:33 | 19.08850 | 72.82609 | 1701 ft | 192 kts | 267° |
| 2026-05-04 13:33 | 19.08819 | 72.81115 | 1895 ft | 218 kts | 267° |
| 2026-05-04 13:33 | 19.08783 | 72.79434 | 2246 ft | 237 kts | 268° |
| 2026-05-04 13:34 | 19.08749 | 72.77661 | 2818 ft | 244 kts | 268° |
| 2026-05-04 13:34 | 19.08717 | 72.75857 | 3459 ft | 249 kts | 268° |
| 2026-05-04 13:34 | 19.08805 | 72.74011 | 4088 ft | 252 kts | 276° |
| 2026-05-04 13:34 | 19.09006 | 72.72167 | 4761 ft | 253 kts | 277° |
| 2026-05-04 13:35 | 19.09217 | 72.70302 | 5358 ft | 257 kts | 277° |
| 2026-05-04 13:35 | 19.09635 | 72.66501 | 6528 ft | 264 kts | 277° |
| 2026-05-04 13:35 | 19.09846 | 72.64560 | 7032 ft | 270 kts | 277° |
| 2026-05-04 13:36 | 19.10062 | 72.62565 | 7537 ft | 275 kts | 277° |
| 2026-05-04 13:36 | 19.10280 | 72.60539 | 8094 ft | 278 kts | 277° |
| 2026-05-04 13:36 | 19.10497 | 72.58525 | 8623 ft | 283 kts | 277° |
| 2026-05-04 13:36 | 19.10725 | 72.56397 | 9106 ft | 290 kts | 276° |
| 2026-05-04 13:37 | 19.10953 | 72.54277 | 9599 ft | 297 kts | 276° |
| 2026-05-04 13:37 | 19.11187 | 72.52091 | 10021 ft | 305 kts | 276° |
| 2026-05-04 13:37 | 19.11429 | 72.49824 | 10271 ft | 318 kts | 276° |
| 2026-05-04 13:37 | 19.11596 | 72.48269 | 10432 ft | 326 kts | 276° |
| 2026-05-04 13:38 | 19.11945 | 72.45000 | 10813 ft | 339 kts | 276° |
| 2026-05-04 13:38 | 19.12120 | 72.43358 | 11108 ft | 342 kts | 276° |
| 2026-05-04 13:38 | 19.12395 | 72.40773 | 11632 ft | 343 kts | 276° |
| 2026-05-04 13:38 | 19.12665 | 72.38233 | 12164 ft | 343 kts | 276° |
| 2026-05-04 13:39 | 19.12928 | 72.35766 | 12685 ft | 344 kts | 276° |
| 2026-05-04 13:39 | 19.13196 | 72.33236 | 13153 ft | 346 kts | 276° |
| 2026-05-04 13:39 | 19.13464 | 72.30697 | 13611 ft | 349 kts | 276° |
| 2026-05-04 13:39 | 19.13735 | 72.28134 | 14013 ft | 352 kts | 276° |
| 2026-05-04 13:40 | 19.14008 | 72.25553 | 14398 ft | 354 kts | 276° |
| 2026-05-04 13:40 | 19.14282 | 72.22960 | 14801 ft | 356 kts | 276° |
| 2026-05-04 13:40 | 19.14557 | 72.20347 | 15191 ft | 359 kts | 276° |
| 2026-05-04 13:40 | 19.14830 | 72.17754 | 15614 ft | 361 kts | 276° |
| 2026-05-04 13:41 | 19.15107 | 72.15113 | 16019 ft | 363 kts | 276° |
| 2026-05-04 13:41 | 19.15399 | 72.12450 | 16420 ft | 365 kts | 278° |
| 2026-05-04 13:41 | 19.15924 | 72.09817 | 16823 ft | 367 kts | 287° |
| 2026-05-04 13:42 | 19.18081 | 72.04896 | 17633 ft | 372 kts | 298° |
| 2026-05-04 13:42 | 19.19314 | 72.02482 | 18030 ft | 374 kts | 298° |
| 2026-05-04 13:42 | 19.20550 | 72.00052 | 18366 ft | 376 kts | 298° |
| 2026-05-04 13:42 | 19.21773 | 71.97636 | 18722 ft | 378 kts | 297° |
| 2026-05-04 13:43 | 19.23014 | 71.95176 | 19061 ft | 380 kts | 297° |
| 2026-05-04 13:43 | 19.24259 | 71.92706 | 19421 ft | 381 kts | 297° |
| 2026-05-04 13:43 | 19.25504 | 71.90232 | 19758 ft | 383 kts | 298° |
| 2026-05-04 13:43 | 19.26758 | 71.87737 | 20089 ft | 385 kts | 298° |
| 2026-05-04 13:44 | 19.28017 | 71.85232 | 20433 ft | 386 kts | 298° |
| 2026-05-04 13:44 | 19.29280 | 71.82717 | 20791 ft | 387 kts | 298° |
| 2026-05-04 13:44 | 19.30533 | 71.80221 | 21126 ft | 389 kts | 298° |
| 2026-05-04 13:44 | 19.31804 | 71.77689 | 21462 ft | 390 kts | 298° |
| 2026-05-04 13:45 | 19.33081 | 71.75142 | 21791 ft | 392 kts | 298° |
| 2026-05-04 13:45 | 19.34359 | 71.72593 | 22110 ft | 394 kts | 298° |
| 2026-05-04 13:45 | 19.35645 | 71.70027 | 22432 ft | 395 kts | 298° |
| 2026-05-04 13:45 | 19.36936 | 71.67450 | 22761 ft | 397 kts | 298° |
| 2026-05-04 13:46 | 19.38232 | 71.64861 | 23084 ft | 398 kts | 298° |
| 2026-05-04 13:46 | 19.39532 | 71.62264 | 23373 ft | 400 kts | 298° |
| 2026-05-04 13:46 | 19.40818 | 71.59692 | 23610 ft | 402 kts | 298° |
| 2026-05-04 13:46 | 19.42129 | 71.57071 | 23854 ft | 403 kts | 298° |
| 2026-05-04 13:47 | 19.43444 | 71.54440 | 24118 ft | 404 kts | 298° |
| 2026-05-04 13:47 | 19.44759 | 71.51808 | 24362 ft | 406 kts | 298° |
| 2026-05-04 13:47 | 19.46083 | 71.49156 | 24606 ft | 407 kts | 298° |
| 2026-05-04 13:47 | 19.47407 | 71.46504 | 24847 ft | 409 kts | 298° |
| 2026-05-04 13:48 | 19.48738 | 71.43835 | 25094 ft | 410 kts | 298° |
| 2026-05-04 13:48 | 19.50073 | 71.41158 | 25342 ft | 411 kts | 298° |
| 2026-05-04 13:48 | 19.51413 | 71.38471 | 25606 ft | 413 kts | 299° |
| 2026-05-04 13:48 | 19.52752 | 71.35782 | 25846 ft | 414 kts | 299° |
| 2026-05-04 13:49 | 19.54080 | 71.33115 | 26093 ft | 415 kts | 299° |
| 2026-05-04 13:49 | 19.55448 | 71.30367 | 26352 ft | 417 kts | 299° |
| 2026-05-04 13:49 | 19.56784 | 71.27682 | 26610 ft | 418 kts | 299° |
| 2026-05-04 13:49 | 19.58140 | 71.24955 | 26863 ft | 419 kts | 299° |
| 2026-05-04 13:50 | 19.59504 | 71.22211 | 27111 ft | 421 kts | 299° |
| 2026-05-04 13:50 | 19.60779 | 71.19412 | 27370 ft | 424 kts | 294° |
| 2026-05-04 13:50 | 19.61823 | 71.16478 | 27652 ft | 425 kts | 291° |
| 2026-05-04 13:50 | 19.62782 | 71.13505 | 27897 ft | 428 kts | 290° |
| 2026-05-04 13:51 | 19.63697 | 71.10539 | 28153 ft | 429 kts | 290° |
| 2026-05-04 13:51 | 19.64627 | 71.07480 | 28428 ft | 431 kts | 290° |
| 2026-05-04 13:51 | 19.65536 | 71.04496 | 28680 ft | 432 kts | 290° |
| 2026-05-04 13:51 | 19.66469 | 71.01454 | 28950 ft | 434 kts | 290° |
| 2026-05-04 13:52 | 19.68361 | 70.95353 | 29464 ft | 437 kts | 291° |
| 2026-05-04 13:52 | 19.69317 | 70.92283 | 29723 ft | 439 kts | 291° |
| 2026-05-04 13:52 | 19.70277 | 70.89207 | 29962 ft | 440 kts | 291° |
| 2026-05-04 13:53 | 19.71240 | 70.86115 | 30180 ft | 442 kts | 291° |
| 2026-05-04 13:53 | 19.72206 | 70.83011 | 30400 ft | 444 kts | 291° |
| 2026-05-04 13:53 | 19.73164 | 70.79932 | 30639 ft | 446 kts | 290° |
| 2026-05-04 13:54 | 19.75111 | 70.73661 | 31113 ft | 449 kts | 290° |
| 2026-05-04 13:54 | 19.76091 | 70.70505 | 31360 ft | 451 kts | 290° |
| 2026-05-04 13:54 | 19.78060 | 70.64149 | 31850 ft | 454 kts | 290° |
| 2026-05-04 13:55 | 19.79049 | 70.60955 | 32093 ft | 456 kts | 290° |
| 2026-05-04 13:55 | 19.81020 | 70.54580 | 32555 ft | 459 kts | 290° |
| 2026-05-04 13:55 | 19.82017 | 70.51353 | 32793 ft | 461 kts | 290° |
| 2026-05-04 13:56 | 19.83018 | 70.48111 | 33013 ft | 463 kts | 289° |
| 2026-05-04 13:56 | 19.84020 | 70.44861 | 33233 ft | 465 kts | 289° |
| 2026-05-04 13:56 | 19.86039 | 70.38311 | 33694 ft | 468 kts | 289° |
| 2026-05-04 13:57 | 19.87054 | 70.35014 | 33895 ft | 469 kts | 289° |
| 2026-05-04 13:57 | 19.88065 | 70.31722 | 34086 ft | 471 kts | 289° |
| 2026-05-04 13:58 | 19.91039 | 70.21807 | 34864 ft | 470 kts | 288° |
| 2026-05-04 13:58 | 19.93012 | 70.15201 | 35488 ft | 468 kts | 288° |
| 2026-05-04 13:58 | 19.94002 | 70.11897 | 35793 ft | 468 kts | 288° |
| 2026-05-04 13:59 | 19.94987 | 70.08606 | 36107 ft | 467 kts | 288° |
| 2026-05-04 13:59 | 19.95971 | 70.05322 | 36434 ft | 467 kts | 288° |
| 2026-05-04 13:59 | 19.97935 | 69.98761 | 37075 ft | 465 kts | 288° |
| 2026-05-04 14:00 | 19.98902 | 69.95525 | 37389 ft | 465 kts | 288° |
| 2026-05-04 14:00 | 20.00852 | 69.88994 | 38037 ft | 463 kts | 288° |
| 2026-05-04 14:00 | 20.01827 | 69.85726 | 38356 ft | 462 kts | 288° |
| 2026-05-04 14:01 | 20.02796 | 69.82472 | 38631 ft | 462 kts | 288° |
| 2026-05-04 14:01 | 20.03765 | 69.79219 | 38892 ft | 461 kts | 288° |
| 2026-05-04 14:01 | 20.05695 | 69.72730 | 39406 ft | 460 kts | 288° |
| 2026-05-04 14:02 | 20.06645 | 69.69533 | 39649 ft | 459 kts | 288° |
| 2026-05-04 14:02 | 20.07607 | 69.66295 | 39788 ft | 460 kts | 288° |
| 2026-05-04 14:02 | 20.08570 | 69.63046 | 39785 ft | 461 kts | 288° |
| 2026-05-04 14:03 | 20.10497 | 69.56546 | 39779 ft | 461 kts | 288° |
| 2026-05-04 14:03 | 20.12421 | 69.50044 | 39787 ft | 461 kts | 288° |
| 2026-05-04 14:04 | 20.15309 | 69.40268 | 39783 ft | 461 kts | 288° |
| 2026-05-04 14:04 | 20.17217 | 69.33795 | 39780 ft | 461 kts | 288° |
| 2026-05-04 14:05 | 20.20094 | 69.24019 | 39782 ft | 461 kts | 287° |
| 2026-05-04 14:06 | 20.22010 | 69.17493 | 39781 ft | 461 kts | 287° |
| 2026-05-04 14:06 | 20.23906 | 69.11029 | 39786 ft | 461 kts | 287° |
| 2026-05-04 14:07 | 20.25819 | 69.04497 | 39783 ft | 461 kts | 287° |
| 2026-05-04 14:07 | 20.27726 | 68.97975 | 39778 ft | 461 kts | 287° |
| 2026-05-04 14:08 | 20.29629 | 68.91457 | 39773 ft | 461 kts | 287° |
| 2026-05-04 14:08 | 20.31518 | 68.84976 | 39774 ft | 461 kts | 287° |
| 2026-05-04 14:09 | 20.34365 | 68.75192 | 39773 ft | 461 kts | 287° |
| 2026-05-04 14:10 | 20.37207 | 68.65400 | 39774 ft | 461 kts | 287° |
| 2026-05-04 14:10 | 20.39088 | 68.58911 | 39773 ft | 461 kts | 287° |
| 2026-05-04 14:11 | 20.40978 | 68.52377 | 39776 ft | 461 kts | 287° |
| 2026-05-04 14:11 | 20.43808 | 68.42576 | 39776 ft | 461 kts | 287° |
| 2026-05-04 14:12 | 20.45374 | 68.37142 | 39775 ft | 461 kts | 287° |
| 2026-05-04 14:13 | 20.48499 | 68.26280 | 39769 ft | 461 kts | 287° |
| 2026-05-04 14:13 | 20.50061 | 68.20838 | 39767 ft | 461 kts | 287° |
| 2026-05-04 14:14 | 20.51934 | 68.14308 | 39765 ft | 461 kts | 287° |
| 2026-05-04 14:14 | 20.54743 | 68.04490 | 39765 ft | 461 kts | 287° |
| 2026-05-04 14:15 | 20.56621 | 67.97916 | 39775 ft | 461 kts | 287° |
| 2026-05-04 14:16 | 20.59417 | 67.88106 | 39768 ft | 460 kts | 287° |
| 2026-05-04 14:17 | 20.62204 | 67.78305 | 39768 ft | 460 kts | 287° |
| 2026-05-04 14:18 | 20.64972 | 67.68550 | 39759 ft | 460 kts | 287° |
| 2026-05-04 14:19 | 20.68673 | 67.55469 | 39766 ft | 460 kts | 287° |
| 2026-05-04 14:19 | 20.70517 | 67.48934 | 39764 ft | 460 kts | 287° |
| 2026-05-04 14:20 | 20.72348 | 67.42438 | 39768 ft | 460 kts | 287° |
| 2026-05-04 14:20 | 20.74189 | 67.35894 | 39757 ft | 460 kts | 287° |
| 2026-05-04 14:21 | 20.76945 | 67.26082 | 39764 ft | 460 kts | 287° |
| 2026-05-04 14:21 | 20.78778 | 67.19540 | 39768 ft | 460 kts | 287° |
| 2026-05-04 14:22 | 20.80610 | 67.12992 | 39758 ft | 460 kts | 287° |
| 2026-05-04 14:22 | 20.82427 | 67.06489 | 39769 ft | 460 kts | 287° |
| 2026-05-04 14:23 | 20.85171 | 66.96648 | 39767 ft | 460 kts | 287° |
| 2026-05-04 14:24 | 20.86993 | 66.90098 | 39758 ft | 460 kts | 286° |
| 2026-05-04 14:24 | 20.88803 | 66.83583 | 39767 ft | 460 kts | 286° |
| 2026-05-04 14:25 | 20.90621 | 66.77030 | 39763 ft | 460 kts | 286° |
| 2026-05-04 14:25 | 20.93347 | 66.67179 | 39770 ft | 460 kts | 286° |
| 2026-05-04 14:26 | 20.95149 | 66.60656 | 39753 ft | 460 kts | 286° |
| 2026-05-04 14:26 | 20.96958 | 66.54097 | 39766 ft | 460 kts | 286° |
| 2026-05-04 14:27 | 20.98767 | 66.47527 | 39767 ft | 460 kts | 286° |
| 2026-05-04 14:27 | 21.00568 | 66.40974 | 39766 ft | 460 kts | 286° |
| 2026-05-04 14:28 | 21.02372 | 66.34400 | 39771 ft | 460 kts | 286° |
| 2026-05-04 14:28 | 21.04174 | 66.27823 | 39765 ft | 460 kts | 286° |
| 2026-05-04 14:29 | 21.07755 | 66.14721 | 39760 ft | 460 kts | 286° |
| 2026-05-04 14:30 | 21.09548 | 66.08146 | 39750 ft | 460 kts | 286° |
| 2026-05-04 14:31 | 21.12580 | 65.98403 | 39771 ft | 460 kts | 295° |
| 2026-05-04 14:32 | 21.18266 | 65.86165 | 39769 ft | 461 kts | 296° |
| 2026-05-04 14:32 | 21.21166 | 65.80052 | 39752 ft | 460 kts | 296° |
| 2026-05-04 14:33 | 21.24052 | 65.73927 | 39749 ft | 460 kts | 296° |
| 2026-05-04 14:33 | 21.26911 | 65.67837 | 39750 ft | 460 kts | 296° |
| 2026-05-04 14:34 | 21.29782 | 65.61713 | 39748 ft | 460 kts | 296° |
| 2026-05-04 14:34 | 21.32651 | 65.55588 | 39754 ft | 460 kts | 296° |
| 2026-05-04 14:35 | 21.35519 | 65.49458 | 39751 ft | 460 kts | 296° |
| 2026-05-04 14:35 | 21.38366 | 65.43366 | 39751 ft | 460 kts | 296° |
| 2026-05-04 14:36 | 21.41227 | 65.37235 | 39767 ft | 459 kts | 296° |
| 2026-05-04 14:36 | 21.44090 | 65.31096 | 39764 ft | 459 kts | 296° |
| 2026-05-04 14:37 | 21.46943 | 65.24969 | 39748 ft | 459 kts | 296° |
| 2026-05-04 14:37 | 21.49778 | 65.18874 | 39761 ft | 459 kts | 296° |
| 2026-05-04 14:38 | 21.52631 | 65.12733 | 39750 ft | 459 kts | 296° |
| 2026-05-04 14:38 | 21.55481 | 65.06590 | 39753 ft | 459 kts | 296° |
| 2026-05-04 14:39 | 21.58327 | 65.00450 | 39766 ft | 459 kts | 296° |
| 2026-05-04 14:39 | 21.61165 | 64.94319 | 39751 ft | 459 kts | 296° |
| 2026-05-04 14:40 | 21.65403 | 64.85151 | 39752 ft | 459 kts | 296° |
| 2026-05-04 14:40 | 21.68239 | 64.79006 | 39755 ft | 459 kts | 296° |
| 2026-05-04 14:41 | 21.71073 | 64.72860 | 39754 ft | 459 kts | 295° |
| 2026-05-04 14:42 | 21.76716 | 64.60598 | 39754 ft | 459 kts | 295° |
| 2026-05-04 14:42 | 21.79540 | 64.54450 | 39757 ft | 459 kts | 295° |
| 2026-05-04 14:43 | 21.82363 | 64.48298 | 39754 ft | 459 kts | 295° |
| 2026-05-04 14:43 | 21.85189 | 64.42131 | 39753 ft | 459 kts | 295° |
| 2026-05-04 14:44 | 21.88007 | 64.35974 | 39755 ft | 459 kts | 295° |
| 2026-05-04 14:44 | 21.90804 | 64.29857 | 39752 ft | 459 kts | 295° |
| 2026-05-04 14:45 | 21.93618 | 64.23693 | 39752 ft | 458 kts | 295° |
| 2026-05-04 14:45 | 21.96432 | 64.17523 | 39749 ft | 459 kts | 295° |
| 2026-05-04 14:46 | 21.99239 | 64.11360 | 39750 ft | 459 kts | 295° |
| 2026-05-04 14:46 | 22.02027 | 64.05232 | 39749 ft | 459 kts | 295° |
| 2026-05-04 14:47 | 22.04835 | 63.99053 | 39748 ft | 459 kts | 295° |
| 2026-05-04 14:47 | 22.07638 | 63.92877 | 39752 ft | 459 kts | 295° |
| 2026-05-04 14:48 | 22.10441 | 63.86694 | 39749 ft | 459 kts | 295° |
| 2026-05-04 14:48 | 22.13238 | 63.80515 | 39746 ft | 459 kts | 295° |
| 2026-05-04 14:49 | 22.16034 | 63.74330 | 39748 ft | 459 kts | 295° |
| 2026-05-04 14:49 | 22.18809 | 63.68186 | 39747 ft | 459 kts | 295° |
| 2026-05-04 14:50 | 22.21599 | 63.62001 | 39747 ft | 459 kts | 295° |
| 2026-05-04 14:50 | 22.24389 | 63.55808 | 39744 ft | 459 kts | 295° |
| 2026-05-04 14:51 | 22.27178 | 63.49610 | 39744 ft | 459 kts | 295° |
| 2026-05-04 14:51 | 22.29940 | 63.43464 | 39742 ft | 459 kts | 295° |
| 2026-05-04 14:52 | 22.32721 | 63.37268 | 39740 ft | 458 kts | 295° |
| 2026-05-04 14:52 | 22.35500 | 63.31068 | 39742 ft | 458 kts | 295° |
| 2026-05-04 14:53 | 22.38279 | 63.24862 | 39739 ft | 459 kts | 295° |
| 2026-05-04 14:53 | 22.41053 | 63.18657 | 39736 ft | 459 kts | 295° |
| 2026-05-04 14:54 | 22.43808 | 63.12490 | 39738 ft | 459 kts | 295° |
| 2026-05-04 14:54 | 22.46459 | 63.06216 | 39737 ft | 459 kts | 292° |
| 2026-05-04 14:55 | 22.48881 | 62.99840 | 39734 ft | 459 kts | 292° |
| 2026-05-04 14:55 | 22.51308 | 62.93450 | 39734 ft | 459 kts | 292° |
| 2026-05-04 14:56 | 22.53754 | 62.87126 | 39733 ft | 459 kts | 292° |
| 2026-05-04 14:56 | 22.56232 | 62.80764 | 39734 ft | 459 kts | 292° |
| 2026-05-04 14:57 | 22.58707 | 62.74408 | 39734 ft | 459 kts | 292° |
| 2026-05-04 14:57 | 22.61181 | 62.68039 | 39731 ft | 459 kts | 292° |
| 2026-05-04 14:58 | 22.63655 | 62.61658 | 39732 ft | 459 kts | 292° |
| 2026-05-04 14:58 | 22.66104 | 62.55331 | 39729 ft | 459 kts | 292° |
| 2026-05-04 14:59 | 22.68572 | 62.48949 | 39728 ft | 459 kts | 292° |
| 2026-05-04 15:00 | 22.72267 | 62.39375 | 39728 ft | 459 kts | 292° |
| 2026-05-04 15:00 | 22.74724 | 62.32998 | 39728 ft | 459 kts | 292° |
| 2026-05-04 15:01 | 22.78393 | 62.23460 | 39724 ft | 459 kts | 292° |
| 2026-05-04 15:01 | 22.80845 | 62.17075 | 39724 ft | 459 kts | 292° |
| 2026-05-04 15:02 | 22.83295 | 62.10685 | 39724 ft | 459 kts | 292° |
| 2026-05-04 15:02 | 22.85742 | 62.04293 | 39721 ft | 459 kts | 292° |
| 2026-05-04 15:03 | 22.88173 | 61.97937 | 39722 ft | 459 kts | 292° |
| 2026-05-04 15:03 | 22.90618 | 61.91533 | 39720 ft | 459 kts | 292° |
| 2026-05-04 15:04 | 22.93061 | 61.85127 | 39721 ft | 459 kts | 292° |
| 2026-05-04 15:04 | 22.95499 | 61.78722 | 39717 ft | 459 kts | 292° |
| 2026-05-04 15:05 | 22.97934 | 61.72317 | 39720 ft | 459 kts | 292° |
| 2026-05-04 15:05 | 23.00352 | 61.65950 | 39716 ft | 459 kts | 292° |
| 2026-05-04 15:06 | 23.02783 | 61.59538 | 39716 ft | 459 kts | 292° |
| 2026-05-04 15:07 | 23.06423 | 61.49921 | 39717 ft | 459 kts | 292° |
| 2026-05-04 15:07 | 23.08828 | 61.43555 | 39716 ft | 458 kts | 292° |
| 2026-05-04 15:08 | 23.11242 | 61.37155 | 39717 ft | 458 kts | 292° |
| 2026-05-04 15:08 | 23.13655 | 61.30749 | 39718 ft | 458 kts | 292° |
| 2026-05-04 15:09 | 23.16066 | 61.24341 | 39715 ft | 458 kts | 292° |
| 2026-05-04 15:09 | 23.18471 | 61.17938 | 39713 ft | 458 kts | 292° |
| 2026-05-04 15:10 | 23.22058 | 61.08373 | 39711 ft | 458 kts | 292° |
| 2026-05-04 15:11 | 23.25657 | 60.98752 | 39711 ft | 458 kts | 292° |
| 2026-05-04 15:11 | 23.28054 | 60.92334 | 39708 ft | 458 kts | 291° |
| 2026-05-04 15:12 | 23.30446 | 60.85922 | 39708 ft | 458 kts | 291° |
| 2026-05-04 15:12 | 23.32822 | 60.79542 | 39709 ft | 458 kts | 291° |
| 2026-05-04 15:13 | 23.35208 | 60.73125 | 39707 ft | 458 kts | 291° |
| 2026-05-04 15:13 | 23.37593 | 60.66703 | 39709 ft | 458 kts | 291° |
| 2026-05-04 15:14 | 23.39971 | 60.60287 | 39708 ft | 457 kts | 291° |
| 2026-05-04 15:14 | 23.42310 | 60.53888 | 39704 ft | 458 kts | 291° |
| 2026-05-04 15:15 | 23.44655 | 60.47448 | 39705 ft | 458 kts | 291° |
| 2026-05-04 15:15 | 23.47004 | 60.41007 | 39705 ft | 457 kts | 291° |
| 2026-05-04 15:16 | 23.50525 | 60.31345 | 39706 ft | 457 kts | 291° |
| 2026-05-04 15:17 | 23.54042 | 60.21676 | 39702 ft | 457 kts | 291° |
| 2026-05-04 15:17 | 23.57531 | 60.12059 | 39704 ft | 457 kts | 291° |
| 2026-05-04 15:18 | 23.59868 | 60.05607 | 39702 ft | 457 kts | 291° |
| 2026-05-04 15:19 | 23.63363 | 59.95936 | 39697 ft | 457 kts | 291° |
| 2026-05-04 15:19 | 23.66850 | 59.86269 | 39703 ft | 457 kts | 291° |
| 2026-05-04 15:20 | 23.69158 | 59.79857 | 39704 ft | 457 kts | 291° |
| 2026-05-04 15:20 | 23.71478 | 59.73404 | 39706 ft | 457 kts | 291° |
| 2026-05-04 15:21 | 23.73796 | 59.66945 | 39704 ft | 457 kts | 290° |
| 2026-05-04 15:22 | 23.77263 | 59.57267 | 39706 ft | 456 kts | 290° |
| 2026-05-04 15:22 | 23.80709 | 59.47626 | 39707 ft | 456 kts | 290° |
| 2026-05-04 15:23 | 23.83010 | 59.41178 | 39706 ft | 456 kts | 290° |
| 2026-05-04 15:23 | 23.85313 | 59.34712 | 39708 ft | 456 kts | 290° |
| 2026-05-04 15:24 | 23.89888 | 59.21840 | 39704 ft | 456 kts | 290° |
| 2026-05-04 15:25 | 23.92177 | 59.15385 | 39709 ft | 456 kts | 290° |
| 2026-05-04 15:26 | 23.95456 | 59.05636 | 39705 ft | 455 kts | 288° |
| 2026-05-04 15:26 | 23.98532 | 58.95815 | 39712 ft | 455 kts | 288° |
| 2026-05-04 15:27 | 24.01636 | 58.86062 | 39712 ft | 455 kts | 288° |
| 2026-05-04 15:28 | 24.04769 | 58.76259 | 39711 ft | 455 kts | 288° |
| 2026-05-04 15:29 | 24.07873 | 58.66519 | 39711 ft | 454 kts | 288° |
| 2026-05-04 15:30 | 24.15102 | 58.43730 | 39715 ft | 453 kts | 288° |
| 2026-05-04 15:31 | 24.18190 | 58.33951 | 39721 ft | 453 kts | 288° |
| 2026-05-04 15:32 | 24.23319 | 58.17659 | 39718 ft | 452 kts | 288° |
| 2026-05-04 15:34 | 24.28409 | 58.01423 | 39717 ft | 452 kts | 288° |
| 2026-05-04 15:34 | 24.31460 | 57.91658 | 39193 ft | 452 kts | 288° |
| 2026-05-04 15:35 | 24.33485 | 57.85158 | 38224 ft | 455 kts | 288° |
| 2026-05-04 15:35 | 24.34508 | 57.81874 | 37591 ft | 455 kts | 288° |
| 2026-05-04 15:35 | 24.35530 | 57.78592 | 37128 ft | 454 kts | 288° |
| 2026-05-04 15:36 | 24.37574 | 57.72016 | 36276 ft | 458 kts | 288° |
| 2026-05-04 15:36 | 24.38603 | 57.68704 | 35857 ft | 459 kts | 288° |
| 2026-05-04 15:36 | 24.39631 | 57.65387 | 35452 ft | 459 kts | 288° |
| 2026-05-04 15:37 | 24.40646 | 57.62112 | 35057 ft | 460 kts | 288° |
| 2026-05-04 15:37 | 24.41671 | 57.58801 | 34661 ft | 460 kts | 288° |
| 2026-05-04 15:37 | 24.42702 | 57.55467 | 34209 ft | 460 kts | 288° |
| 2026-05-04 15:37 | 24.43725 | 57.52157 | 33517 ft | 459 kts | 288° |
| 2026-05-04 15:38 | 24.44753 | 57.48839 | 32752 ft | 458 kts | 288° |
| 2026-05-04 15:38 | 24.45770 | 57.45547 | 32330 ft | 450 kts | 288° |
| 2026-05-04 15:38 | 24.46770 | 57.42302 | 31688 ft | 448 kts | 288° |
| 2026-05-04 15:38 | 24.47762 | 57.39071 | 30974 ft | 447 kts | 288° |
| 2026-05-04 15:39 | 24.48744 | 57.35874 | 30287 ft | 447 kts | 288° |
| 2026-05-04 15:39 | 24.49735 | 57.32644 | 29574 ft | 446 kts | 288° |
| 2026-05-04 15:39 | 24.51711 | 57.26209 | 28003 ft | 444 kts | 288° |
| 2026-05-04 15:40 | 24.52697 | 57.22993 | 27255 ft | 443 kts | 288° |
| 2026-05-04 15:40 | 24.53675 | 57.19801 | 26543 ft | 441 kts | 288° |
| 2026-05-04 15:40 | 24.54649 | 57.16622 | 25992 ft | 435 kts | 288° |
| 2026-05-04 15:40 | 24.55603 | 57.13504 | 25640 ft | 426 kts | 288° |
| 2026-05-04 15:41 | 24.56532 | 57.10463 | 25306 ft | 416 kts | 288° |
| 2026-05-04 15:41 | 24.57433 | 57.07513 | 25007 ft | 407 kts | 288° |
| 2026-05-04 15:41 | 24.58322 | 57.04600 | 24715 ft | 402 kts | 288° |
| 2026-05-04 15:41 | 24.59213 | 57.01678 | 24428 ft | 402 kts | 288° |
| 2026-05-04 15:42 | 24.60099 | 56.98768 | 24138 ft | 402 kts | 288° |
| 2026-05-04 15:42 | 24.60986 | 56.95855 | 23852 ft | 402 kts | 288° |
| 2026-05-04 15:42 | 24.61872 | 56.92940 | 23573 ft | 401 kts | 288° |
| 2026-05-04 15:42 | 24.62756 | 56.90033 | 23283 ft | 401 kts | 288° |
| 2026-05-04 15:43 | 24.63637 | 56.87132 | 22955 ft | 400 kts | 288° |
| 2026-05-04 15:43 | 24.64661 | 56.84305 | 22748 ft | 398 kts | 297° |
| 2026-05-04 15:43 | 24.65961 | 56.81671 | 22721 ft | 397 kts | 299° |
| 2026-05-04 15:43 | 24.67351 | 56.79051 | 22721 ft | 397 kts | 300° |
| 2026-05-04 15:44 | 24.68781 | 56.76452 | 22723 ft | 397 kts | 301° |
| 2026-05-04 15:44 | 24.70227 | 56.73863 | 22725 ft | 397 kts | 301° |
| 2026-05-04 15:44 | 24.71671 | 56.71282 | 22726 ft | 397 kts | 301° |
| 2026-05-04 15:44 | 24.73117 | 56.68689 | 22730 ft | 397 kts | 301° |
| 2026-05-04 15:45 | 24.74552 | 56.66099 | 22730 ft | 397 kts | 300° |
| 2026-05-04 15:45 | 24.75983 | 56.63508 | 22732 ft | 397 kts | 300° |
| 2026-05-04 15:45 | 24.77607 | 56.61052 | 22733 ft | 397 kts | 307° |
| 2026-05-04 15:45 | 24.78956 | 56.58457 | 22366 ft | 389 kts | 291° |
| 2026-05-04 15:46 | 24.79853 | 56.55689 | 21737 ft | 390 kts | 289° |
| 2026-05-04 15:46 | 24.80762 | 56.52863 | 21004 ft | 392 kts | 290° |
| 2026-05-04 15:46 | 24.81717 | 56.50049 | 20274 ft | 393 kts | 291° |
| 2026-05-04 15:46 | 24.82701 | 56.47245 | 19561 ft | 394 kts | 292° |
| 2026-05-04 15:47 | 24.83706 | 56.44433 | 18874 ft | 394 kts | 292° |
| 2026-05-04 15:47 | 24.84716 | 56.41635 | 18218 ft | 393 kts | 293° |
| 2026-05-04 15:47 | 24.85729 | 56.38841 | 17598 ft | 390 kts | 293° |
| 2026-05-04 15:47 | 24.86732 | 56.36084 | 16965 ft | 386 kts | 293° |
| 2026-05-04 15:48 | 24.87728 | 56.33348 | 16353 ft | 383 kts | 293° |
| 2026-05-04 15:48 | 24.88701 | 56.30673 | 15769 ft | 379 kts | 293° |
| 2026-05-04 15:48 | 24.90643 | 56.25332 | 14597 ft | 373 kts | 293° |
| 2026-05-04 15:49 | 24.91606 | 56.22684 | 14028 ft | 370 kts | 293° |
| 2026-05-04 15:49 | 24.92556 | 56.20065 | 13473 ft | 367 kts | 293° |
| 2026-05-04 15:49 | 24.93501 | 56.17461 | 12840 ft | 364 kts | 293° |
| 2026-05-04 15:49 | 24.94434 | 56.14890 | 12243 ft | 361 kts | 293° |
| 2026-05-04 15:50 | 24.95359 | 56.12338 | 11637 ft | 357 kts | 293° |
| 2026-05-04 15:50 | 24.96279 | 56.09803 | 11039 ft | 354 kts | 293° |
| 2026-05-04 15:50 | 24.97250 | 56.07328 | 10487 ft | 349 kts | 299° |
| 2026-05-04 15:50 | 24.98657 | 56.05196 | 10140 ft | 338 kts | 312° |
| 2026-05-04 15:51 | 25.00205 | 56.03312 | 10039 ft | 330 kts | 313° |
| 2026-05-04 15:51 | 25.01735 | 56.01464 | 10015 ft | 331 kts | 313° |
| 2026-05-04 15:51 | 25.03251 | 55.99617 | 10041 ft | 319 kts | 313° |
| 2026-05-04 15:51 | 25.04709 | 55.97837 | 10043 ft | 303 kts | 313° |
| 2026-05-04 15:52 | 25.06079 | 55.96162 | 10045 ft | 288 kts | 313° |
| 2026-05-04 15:52 | 25.07419 | 55.94530 | 10047 ft | 286 kts | 313° |
| 2026-05-04 15:52 | 25.08753 | 55.92895 | 10060 ft | 287 kts | 313° |
| 2026-05-04 15:52 | 25.10091 | 55.91251 | 10041 ft | 288 kts | 313° |
| 2026-05-04 15:53 | 25.11428 | 55.89609 | 9928 ft | 288 kts | 313° |
| 2026-05-04 15:53 | 25.12763 | 55.87969 | 9559 ft | 285 kts | 313° |
| 2026-05-04 15:53 | 25.14084 | 55.86346 | 9100 ft | 284 kts | 313° |
| 2026-05-04 15:53 | 25.15376 | 55.84726 | 8652 ft | 285 kts | 310° |
| 2026-05-04 15:54 | 25.16505 | 55.82931 | 8220 ft | 285 kts | 303° |
| 2026-05-04 15:54 | 25.17505 | 55.81131 | 7811 ft | 283 kts | 303° |
| 2026-05-04 15:54 | 25.18530 | 55.79277 | 7369 ft | 282 kts | 303° |
| 2026-05-04 15:54 | 25.19555 | 55.77435 | 6983 ft | 281 kts | 303° |
| 2026-05-04 15:55 | 25.20578 | 55.75602 | 6580 ft | 280 kts | 303° |
| 2026-05-04 15:55 | 25.21594 | 55.73777 | 6160 ft | 279 kts | 303° |
| 2026-05-04 15:55 | 25.22597 | 55.71952 | 5757 ft | 278 kts | 302° |
| 2026-05-04 15:55 | 25.23237 | 55.69942 | 5326 ft | 280 kts | 278° |
| 2026-05-04 15:56 | 25.23045 | 55.67807 | 4868 ft | 284 kts | 253° |
| 2026-05-04 15:56 | 25.22034 | 55.65915 | 4322 ft | 292 kts | 227° |
| 2026-05-04 15:56 | 25.20478 | 55.64562 | 4028 ft | 286 kts | 214° |
| 2026-05-04 15:56 | 25.18806 | 55.63413 | 3688 ft | 281 kts | 213° |
| 2026-05-04 15:57 | 25.17119 | 55.62306 | 3119 ft | 284 kts | 212° |
| 2026-05-04 15:57 | 25.15401 | 55.61188 | 2475 ft | 289 kts | 212° |
| 2026-05-04 15:57 | 25.13683 | 55.60066 | 2125 ft | 281 kts | 214° |
| 2026-05-04 15:57 | 25.12321 | 55.58648 | 2054 ft | 262 kts | 239° |
| 2026-05-04 15:58 | 25.11716 | 55.56811 | 2061 ft | 256 kts | 264° |
| 2026-05-04 15:58 | 25.11688 | 55.54847 | 2032 ft | 257 kts | 279° |
| 2026-05-04 15:58 | 25.12368 | 55.53043 | 2027 ft | 258 kts | 306° |
| 2026-05-04 15:58 | 25.13673 | 55.51705 | 2019 ft | 257 kts | 323° |
| 2026-05-04 15:59 | 25.15114 | 55.50576 | 2012 ft | 258 kts | 322° |
| 2026-05-04 15:59 | 25.16369 | 55.49120 | 2022 ft | 259 kts | 307° |
| 2026-05-04 15:59 | 25.17387 | 55.47511 | 2013 ft | 258 kts | 303° |
| 2026-05-04 15:59 | 25.18351 | 55.45847 | 2003 ft | 257 kts | 302° |
| 2026-05-04 16:00 | 25.19319 | 55.44181 | 2010 ft | 259 kts | 302° |
| 2026-05-04 16:00 | 25.20293 | 55.42501 | 2009 ft | 259 kts | 302° |
| 2026-05-04 16:00 | 25.21257 | 55.40824 | 2005 ft | 258 kts | 302° |
| 2026-05-04 16:00 | 25.22327 | 55.39241 | 2006 ft | 259 kts | 313° |
| 2026-05-04 16:01 | 25.23756 | 55.38072 | 2005 ft | 262 kts | 333° |
| 2026-05-04 16:01 | 25.25547 | 55.37622 | 2005 ft | 265 kts | 359° |
| 2026-05-04 16:01 | 25.27306 | 55.38125 | 2008 ft | 269 kts | 26° |
| 2026-05-04 16:01 | 25.28678 | 55.39511 | 2009 ft | 271 kts | 55° |
| 2026-05-04 16:02 | 25.29310 | 55.41464 | 2003 ft | 274 kts | 83° |
| 2026-05-04 16:02 | 25.28986 | 55.43519 | 2010 ft | 276 kts | 115° |
| 2026-05-04 16:02 | 25.26982 | 55.47154 | 2034 ft | 277 kts | 122° |
| 2026-05-04 16:03 | 25.25983 | 55.48971 | 2031 ft | 278 kts | 121° |
| 2026-05-04 16:03 | 25.25002 | 55.50805 | 2029 ft | 278 kts | 120° |
| 2026-05-04 16:03 | 25.24022 | 55.52659 | 2035 ft | 279 kts | 120° |
| 2026-05-04 16:03 | 25.23065 | 55.54479 | 2039 ft | 278 kts | 120° |
| 2026-05-04 16:04 | 25.22098 | 55.56322 | 2037 ft | 278 kts | 120° |
| 2026-05-04 16:04 | 25.20173 | 55.60009 | 2039 ft | 277 kts | 121° |
| 2026-05-04 16:04 | 25.19206 | 55.61853 | 2045 ft | 279 kts | 120° |
| 2026-05-04 16:05 | 25.18239 | 55.63705 | 2040 ft | 277 kts | 120° |
| 2026-05-04 16:05 | 25.17276 | 55.65544 | 2045 ft | 276 kts | 120° |
| 2026-05-04 16:05 | 25.15351 | 55.69203 | 2050 ft | 276 kts | 122° |
| 2026-05-04 16:06 | 25.14274 | 55.70960 | 2044 ft | 275 kts | 131° |
| 2026-05-04 16:06 | 25.09688 | 55.72279 | 2061 ft | 269 kts | 202° |
| 2026-05-04 16:07 | 25.07509 | 55.71053 | 2051 ft | 265 kts | 216° |
| 2026-05-04 16:07 | 25.06056 | 55.65702 | 2050 ft | 258 kts | 284° |
| 2026-05-04 16:08 | 25.06797 | 55.63900 | 2053 ft | 260 kts | 304° |
| 2026-05-04 16:08 | 25.10903 | 55.60126 | 2050 ft | 261 kts | 330° |
| 2026-05-04 16:09 | 25.13681 | 55.57637 | 2046 ft | 258 kts | 306° |
| 2026-05-04 16:09 | 25.15579 | 55.54278 | 2040 ft | 256 kts | 300° |
| 2026-05-04 16:10 | 25.17198 | 55.51074 | 2044 ft | 220 kts | 298° |
| 2026-05-04 16:11 | 25.19261 | 55.47310 | 1806 ft | 173 kts | 300° |
| 2026-05-04 16:11 | 25.19889 | 55.46178 | 1405 ft | 170 kts | 301° |
| 2026-05-04 16:12 | 25.21527 | 55.43215 | 809 ft | 133 kts | 301° |
| 2026-05-04 16:12 | 25.22871 | 55.40781 | 384 ft | 124 kts | 300° |
| 2026-05-04 16:13 | 25.23847 | 55.39053 | 43 ft | 130 kts | 300° |
| 2026-05-04 16:13 | 25.24545 | 55.37765 | 34 ft | 51 kts | 303° |
| 2026-05-04 16:14 | 25.24777 | 55.37278 | 36 ft | 24 kts | 282° |
| 2026-05-04 16:14 | 25.24787 | 55.37123 | 33 ft | 0 kts | 271° |
| 2026-05-04 16:16 | 25.24788 | 55.37085 | 32 ft | 9 kts | 273° |
| 2026-05-04 16:16 | 25.24692 | 55.36961 | 28 ft | 8 kts | 131° |
| 2026-05-04 16:17 | 25.24608 | 55.37107 | 28 ft | 15 kts | 121° |
| 2026-05-04 16:18 | 25.24479 | 55.37335 | 28 ft | 1 kts | 134° |
| 2026-05-04 16:18 | 25.24464 | 55.37343 | 28 ft | 1 kts | 168° |
| 2026-05-04 16:19 | 25.24451 | 55.37333 | 28 ft | 4 kts | 212° |
| 2026-05-04 16:19 | 25.24406 | 55.37300 | 28 ft | 2 kts | 213° |
| 2026-05-04 16:20 | 25.24391 | 55.37290 | 28 ft | 2 kts | 211° |
| 2026-05-04 16:20 | 25.24387 | 55.37287 | 28 ft | 0 kts | 211° |